Current Conditions
Mostly Clear
Conditions



Pressure
30.12 (inHG) - 1019.98 (mb)
Visibility

9.7 (km) - 6.0 (miles)
Temperature
11  °C
Temperature
9  °C
Dewpoint
88  %
 Humidity
Wind Speed
0.9  m/s
2  mph
3  km/h
2  kts
Wind Direction
N
45°
E
90°
135°
S
180°
225°
W
270°
315°
 70°

East North
East
Airport Data
URKA
Anapa Vityazevo Airport
Metar :URKA 231700Z 07001MPS CAVOK 11/09 Q1020 R22/010070 NOSIG RMK QFE760/1014
Tue 23rd April 20:00 pm
Raw Metar Info
Raw METAR is the most common format in the world for the transmission of observational weather data. It is highly standardized through the International Civil Aviation Organization (ICAO), which allows it to be understood throughout most of the world.
API Info
Data Provided by
https://www.checkwx.com/weather/URKA

Aviation Weather providing METAR, TAF, AIRMET, SIGMET and OUTLOOK Weather Reports
© Info
CSS/SVG/PHP scripts were developed by weather34 for use in the weather34 template © 2015-2024

Guide Info provided by Metar-Wikipedia